createdAt,value
2019-02-16T00:00:18.842Z,91.00
2019-02-16T00:02:50.063Z,91.10
2019-02-16T00:05:25.865Z,91.10
2019-02-16T00:07:54.748Z,91.10
2019-02-16T00:10:22.908Z,91.30
2019-02-16T00:12:59.647Z,91.40
2019-02-16T00:15:28.337Z,91.40
2019-02-16T00:17:58.258Z,91.40
2019-02-16T00:20:27.083Z,91.30
2019-02-16T00:22:55.479Z,91.30
2019-02-16T00:25:25.168Z,91.30
2019-02-16T00:27:57.016Z,91.40
2019-02-16T00:30:35.011Z,91.40
2019-02-16T00:33:17.943Z,91.60
2019-02-16T00:35:50.417Z,91.60
2019-02-16T00:38:21.585Z,91.60
2019-02-16T00:41:15.548Z,91.60
2019-02-16T00:43:55.234Z,91.60
2019-02-16T00:46:52.060Z,91.60
2019-02-16T00:49:31.029Z,91.90
2019-02-16T00:52:05.866Z,92.10
2019-02-16T00:54:34.818Z,92.30
2019-02-16T00:57:19.426Z,92.20
2019-02-16T00:59:48.152Z,92.10
2019-02-16T01:02:42.502Z,92.10
2019-02-16T01:05:33.986Z,92.10
2019-02-16T01:08:10.588Z,92.10
2019-02-16T01:10:56.003Z,92.00
2019-02-16T01:13:29.693Z,92.00
2019-02-16T01:16:02.196Z,91.90
2019-02-16T01:18:35.361Z,92.10
2019-02-16T01:21:25.213Z,92.10
2019-02-16T01:23:54.882Z,92.10
2019-02-16T01:26:27.233Z,92.00
2019-02-16T01:29:08.227Z,91.70
2019-02-16T01:31:49.938Z,91.80
2019-02-16T01:34:26.496Z,91.80
2019-02-16T01:37:07.504Z,91.90
2019-02-16T01:40:05.662Z,91.90
2019-02-16T01:42:44.533Z,92.00
2019-02-16T01:45:43.071Z,92.10
2019-02-16T01:48:42.798Z,92.10
2019-02-16T01:51:32.601Z,92.10
2019-02-16T01:54:15.734Z,91.90
2019-02-16T02:00:10.396Z,91.80
2019-02-16T02:03:10.376Z,91.70
2019-02-16T02:05:46.036Z,91.80
2019-02-16T02:08:20.042Z,91.80
2019-02-16T02:11:04.920Z,91.80
2019-02-16T02:13:45.201Z,91.80
2019-02-16T02:16:25.599Z,91.60
2019-02-16T02:19:03.742Z,91.60
2019-02-16T02:25:51.944Z,91.60
2019-02-16T02:29:10.413Z,91.60
2019-02-16T02:33:06.074Z,91.60
2019-02-16T02:39:39.045Z,91.50
2019-02-16T02:42:18.483Z,91.50
2019-02-16T02:44:47.764Z,91.50
2019-02-16T02:47:40.203Z,91.50
2019-02-16T02:50:09.752Z,91.50
2019-02-16T02:52:43.389Z,91.50
2019-02-16T02:55:45.731Z,91.60
2019-02-16T02:58:38.114Z,91.70
2019-02-16T03:01:32.893Z,91.90
2019-02-16T03:04:18.695Z,92.30
2019-02-16T03:07:16.058Z,92.40
2019-02-16T03:09:55.525Z,92.30
2019-02-16T03:12:33.194Z,92.50
2019-02-16T03:15:03.521Z,92.50
2019-02-16T03:17:33.507Z,92.60
2019-02-16T03:20:31.445Z,92.70
2019-02-16T03:23:24.642Z,92.80
2019-02-16T03:26:57.483Z,93.10
2019-02-16T03:30:03.512Z,93.20
2019-02-16T03:33:18.649Z,93.30
2019-02-16T03:36:35.612Z,93.40
2019-02-16T03:42:29.619Z,93.40
2019-02-16T03:45:27.151Z,93.30
2019-02-16T03:48:32.837Z,93.10
2019-02-16T03:51:35.033Z,92.90
2019-02-16T03:57:23.793Z,92.70
2019-02-16T04:00:34.477Z,92.60
2019-02-16T04:03:13.089Z,92.50
2019-02-16T04:06:38.315Z,92.30
2019-02-16T04:09:36.785Z,92.30
2019-02-16T04:12:25.740Z,92.40
2019-02-16T04:14:57.793Z,92.30
2019-02-16T04:18:11.188Z,92.20
2019-02-16T04:21:21.064Z,92.20
2019-02-16T04:30:49.911Z,92.00
2019-02-16T04:33:24.794Z,92.00
2019-02-16T04:36:05.423Z,92.00
2019-02-16T04:39:30.435Z,91.70
2019-02-16T04:42:25.464Z,91.80
2019-02-16T04:45:08.112Z,91.90
2019-02-16T04:47:41.745Z,91.90
2019-02-16T04:50:48.166Z,91.90
2019-02-16T04:53:17.327Z,91.80
2019-02-16T04:55:47.055Z,91.90
2019-02-16T04:58:23.782Z,92.00
2019-02-16T05:01:20.759Z,92.10
2019-02-16T05:04:02.206Z,92.10
2019-02-16T05:07:02.707Z,92.10
2019-02-16T05:09:39.308Z,92.00
2019-02-16T05:12:20.458Z,92.00
2019-02-16T05:14:53.791Z,92.10
2019-02-16T05:17:25.013Z,92.10
2019-02-16T05:19:53.183Z,92.00
2019-02-16T05:22:23.343Z,92.30
2019-02-16T05:25:05.830Z,92.00
2019-02-16T05:27:44.273Z,92.20
2019-02-16T05:30:21.696Z,92.50
2019-02-16T05:33:01.154Z,92.80
2019-02-16T05:35:37.045Z,92.80
2019-02-16T05:38:20.608Z,92.60
2019-02-16T05:40:55.093Z,92.70
2019-02-16T05:43:32.722Z,92.70
2019-02-16T05:46:05.321Z,92.50
2019-02-16T05:48:39.481Z,92.30
2019-02-16T05:51:08.129Z,92.20
2019-02-16T05:53:37.769Z,92.00
2019-02-16T05:56:09.845Z,92.00
2019-02-16T05:58:41.678Z,92.00
2019-02-16T06:01:15.362Z,92.30
2019-02-16T06:03:57.299Z,92.60
2019-02-16T06:06:34.295Z,92.80
2019-02-16T06:13:20.745Z,92.80
2019-02-16T06:16:31.571Z,92.80
2019-02-16T06:19:06.059Z,93.10
2019-02-16T06:21:47.747Z,92.90
2019-02-16T06:24:31.239Z,92.70
2019-02-16T06:27:06.693Z,93.00
2019-02-16T06:29:40.944Z,93.20
2019-02-16T06:32:11.635Z,93.00
2019-02-16T06:34:45.327Z,92.90
2019-02-16T06:37:25.859Z,92.90
2019-02-16T06:39:55.997Z,93.00
2019-02-16T06:50:15.412Z,93.60
2019-02-16T06:53:13.760Z,93.90
2019-02-16T06:56:41.073Z,93.90
2019-02-16T06:59:24.965Z,93.80
2019-02-16T07:02:05.515Z,93.80
2019-02-16T07:05:27.859Z,93.70
2019-02-16T07:08:51.340Z,93.90
2019-02-16T07:11:56.066Z,94.20
2019-02-16T07:18:39.380Z,93.90
2019-02-16T07:28:54.366Z,93.90
2019-02-16T07:31:21.904Z,93.60
2019-02-16T07:33:49.731Z,93.60
2019-02-16T07:36:17.697Z,93.60
2019-02-16T07:38:51.578Z,93.50
2019-02-16T07:41:19.157Z,93.70
2019-02-16T07:44:04.602Z,93.70
2019-02-16T07:46:49.090Z,93.70
2019-02-16T07:49:23.201Z,94.00
2019-02-16T07:52:21.816Z,94.10
2019-02-16T07:55:00.781Z,94.10
2019-02-16T07:57:45.391Z,93.80
2019-02-16T08:00:37.402Z,93.60
2019-02-16T08:03:12.673Z,93.50
2019-02-16T08:05:50.821Z,93.10
2019-02-16T08:08:28.465Z,93.00
2019-02-16T08:11:09.437Z,92.40
2019-02-16T08:14:09.255Z,92.10
2019-02-16T08:17:06.108Z,91.90
2019-02-16T08:19:42.861Z,91.10
2019-02-16T08:22:30.382Z,90.50
2019-02-16T08:25:20.532Z,90.70
2019-02-16T08:28:03.628Z,90.40
2019-02-16T08:30:44.325Z,89.70
2019-02-16T08:33:26.804Z,88.90
2019-02-16T08:43:13.521Z,86.40
2019-02-16T08:46:00.395Z,86.00
2019-02-16T08:49:22.475Z,85.60
2019-02-16T08:52:24.502Z,84.50
2019-02-16T08:55:17.327Z,83.80
2019-02-16T08:57:50.329Z,82.70
2019-02-16T09:00:40.284Z,81.80
2019-02-16T09:03:29.789Z,81.10
2019-02-16T09:06:57.509Z,82.10
2019-02-16T09:09:42.791Z,81.60
2019-02-16T09:13:16.124Z,82.80
2019-02-16T09:15:41.507Z,82.80
2019-02-16T09:18:28.524Z,81.80
2019-02-16T09:21:30.665Z,81.00
2019-02-16T09:24:17.657Z,80.20
2019-02-16T09:27:03.497Z,79.70
2019-02-16T09:29:47.057Z,79.30
2019-02-16T09:32:36.531Z,77.90
2019-02-16T09:35:20.171Z,77.40
2019-02-16T09:37:57.075Z,76.60
2019-02-16T09:40:35.414Z,76.10
2019-02-16T09:43:22.412Z,75.50
2019-02-16T09:45:58.812Z,75.70
2019-02-16T09:48:57.671Z,75.70
2019-02-16T09:51:47.732Z,75.20
2019-02-16T09:54:34.752Z,75.20
2019-02-16T09:57:14.684Z,75.10
2019-02-16T10:00:00.171Z,75.50
2019-02-16T10:02:36.993Z,75.20
2019-02-16T10:05:22.664Z,76.00
2019-02-16T10:08:21.788Z,74.70
2019-02-16T10:10:59.536Z,74.90
2019-02-16T10:13:52.390Z,75.60
2019-02-16T10:16:45.269Z,73.50
2019-02-16T10:19:23.688Z,74.10
2019-02-16T10:22:09.161Z,73.30
2019-02-16T10:25:02.357Z,71.70
2019-02-16T10:27:48.541Z,71.10
2019-02-16T10:30:44.633Z,70.80
2019-02-16T10:33:40.806Z,69.80
2019-02-16T10:36:43.128Z,70.70
2019-02-16T10:39:25.885Z,70.90
2019-02-16T10:42:07.568Z,68.10
2019-02-16T10:44:53.166Z,69.20
2019-02-16T10:47:31.381Z,68.10
2019-02-16T10:50:30.422Z,66.30
2019-02-16T10:53:15.856Z,65.70
2019-02-16T10:56:14.972Z,65.80
2019-02-16T10:58:52.539Z,63.70
2019-02-16T11:01:52.132Z,63.50
2019-02-16T11:04:38.190Z,64.10
2019-02-16T11:07:28.958Z,65.50
2019-02-16T11:10:05.061Z,64.80
2019-02-16T11:16:09.625Z,62.10
2019-02-16T11:18:44.817Z,62.60
2019-02-16T11:21:31.741Z,62.30
2019-02-16T11:24:17.694Z,63.00
2019-02-16T11:27:05.156Z,63.70
2019-02-16T11:30:03.853Z,62.40
2019-02-16T11:36:08.522Z,62.10
2019-02-16T11:39:05.612Z,60.90
2019-02-16T11:42:11.885Z,61.70
2019-02-16T11:44:57.740Z,60.50
2019-02-16T11:48:03.350Z,59.90
2019-02-16T11:51:05.650Z,59.20
2019-02-16T11:59:27.020Z,57.00
2019-02-16T12:04:56.859Z,56.80
2019-02-16T12:07:38.424Z,56.90
2019-02-16T12:10:51.049Z,57.10
2019-02-16T12:13:31.723Z,59.80
2019-02-16T12:19:39.987Z,57.80
2019-02-16T12:22:16.043Z,57.30
2019-02-16T12:25:47.200Z,57.30
2019-02-16T12:28:46.012Z,56.30
2019-02-16T12:31:40.576Z,55.40
2019-02-16T12:41:10.786Z,55.20
2019-02-16T12:44:04.046Z,55.20
2019-02-16T12:46:51.379Z,55.70
2019-02-16T12:49:41.213Z,54.90
2019-02-16T12:52:18.846Z,54.60
2019-02-16T12:55:22.215Z,54.40
2019-02-16T12:58:01.082Z,54.60
2019-02-16T13:00:51.034Z,54.70
2019-02-16T13:04:11.982Z,55.00
2019-02-16T13:07:14.235Z,54.80
2019-02-16T13:10:21.088Z,55.40
2019-02-16T13:16:19.677Z,52.70
2019-02-16T13:19:11.901Z,53.30
2019-02-16T13:26:05.012Z,54.40
2019-02-16T13:29:14.953Z,53.50
2019-02-16T13:32:20.533Z,53.60
2019-02-16T13:35:09.324Z,54.30
2019-02-16T13:38:03.038Z,53.50
2019-02-16T13:40:53.561Z,54.40
2019-02-16T13:43:43.569Z,50.80
2019-02-16T13:46:40.154Z,50.20
2019-02-16T13:49:29.963Z,49.80
2019-02-16T13:52:22.939Z,48.20
2019-02-16T13:55:13.189Z,49.60
2019-02-16T13:58:09.289Z,49.70
2019-02-16T14:00:48.208Z,48.90
2019-02-16T14:03:56.073Z,50.50
2019-02-16T14:10:11.166Z,48.20
2019-02-16T14:12:50.040Z,46.90
2019-02-16T14:15:34.963Z,46.70
2019-02-16T14:18:08.235Z,46.20
2019-02-16T14:20:35.724Z,44.90
2019-02-16T14:23:03.514Z,44.90
2019-02-16T14:25:49.796Z,43.10
2019-02-16T14:28:17.334Z,41.60
2019-02-16T14:30:44.841Z,40.10
2019-02-16T14:33:12.927Z,39.90
2019-02-16T14:35:42.228Z,40.20
2019-02-16T14:38:24.369Z,38.80
2019-02-16T14:41:03.625Z,37.80
2019-02-16T14:43:31.166Z,39.00
2019-02-16T14:45:58.653Z,37.70
2019-02-16T14:48:26.111Z,35.90
2019-02-16T14:50:54.997Z,35.20
2019-02-16T14:53:25.989Z,34.80
2019-02-16T14:55:54.483Z,36.00
2019-02-16T14:58:22.994Z,33.70
2019-02-16T15:00:50.935Z,33.60
2019-02-16T15:03:18.725Z,33.90
2019-02-16T15:05:50.908Z,34.50
2019-02-16T15:08:21.640Z,34.90
2019-02-16T15:10:49.156Z,36.00
2019-02-16T15:13:16.608Z,37.30
2019-02-16T15:15:44.178Z,38.00
2019-02-16T15:18:11.838Z,38.10
2019-02-16T15:20:39.287Z,37.90
2019-02-16T15:23:06.844Z,38.40
2019-02-16T15:25:35.063Z,37.50
2019-02-16T15:28:03.197Z,35.70
2019-02-16T15:30:36.234Z,35.30
2019-02-16T15:33:04.101Z,36.20
2019-02-16T15:35:32.411Z,35.60
2019-02-16T15:38:00.305Z,35.70
2019-02-16T15:40:28.485Z,35.40
2019-02-16T15:43:14.317Z,35.30
2019-02-16T15:45:54.736Z,34.80
2019-02-16T15:48:31.453Z,33.10
2019-02-16T15:51:04.036Z,31.90
2019-02-16T15:53:49.089Z,33.30
2019-02-16T15:56:17.085Z,34.10
2019-02-16T15:58:44.747Z,35.00
2019-02-16T16:01:16.093Z,35.30
2019-02-16T16:03:55.944Z,35.20
2019-02-16T16:06:48.152Z,35.80
2019-02-16T16:09:34.579Z,36.00
2019-02-16T16:13:07.200Z,36.40
2019-02-16T16:15:58.313Z,37.50
2019-02-16T16:19:03.841Z,37.90
2019-02-16T16:22:24.137Z,38.00
2019-02-16T16:25:51.468Z,38.90
2019-02-16T16:28:44.588Z,39.10
2019-02-16T16:31:40.517Z,39.00
2019-02-16T16:34:33.974Z,39.50
2019-02-16T16:37:52.360Z,40.70
2019-02-16T16:40:32.708Z,41.30
2019-02-16T16:43:29.282Z,41.80
2019-02-16T16:46:32.805Z,42.30
2019-02-16T16:49:23.574Z,42.70
2019-02-16T16:52:03.053Z,44.20
2019-02-16T16:54:55.913Z,45.20
2019-02-16T16:57:32.812Z,45.60
2019-02-16T17:00:34.664Z,46.70
2019-02-16T17:03:20.337Z,47.10
2019-02-16T17:06:05.950Z,48.00
2019-02-16T17:08:43.375Z,49.30
2019-02-16T17:11:28.102Z,49.80
2019-02-16T17:14:04.456Z,50.40
2019-02-16T17:16:54.250Z,51.00
2019-02-16T17:19:28.077Z,51.50
2019-02-16T17:22:06.890Z,52.20
2019-02-16T17:25:05.873Z,52.80
2019-02-16T17:27:58.841Z,53.90
2019-02-16T17:30:32.129Z,54.60
2019-02-16T17:33:17.133Z,55.80
2019-02-16T17:36:15.454Z,56.20
2019-02-16T17:39:12.776Z,56.50
2019-02-16T17:41:45.640Z,57.30
2019-02-16T17:44:26.555Z,58.10
2019-02-16T17:47:16.288Z,58.40
2019-02-16T17:49:57.534Z,58.80
2019-02-16T17:52:56.749Z,59.50
2019-02-16T17:55:42.371Z,59.90
2019-02-16T17:58:28.644Z,60.80
2019-02-16T18:01:18.667Z,61.80
2019-02-16T18:04:04.604Z,62.20
2019-02-16T18:06:54.292Z,62.10
2019-02-16T18:09:41.260Z,63.00
2019-02-16T18:12:26.877Z,63.60
2019-02-16T18:15:19.462Z,64.70
2019-02-16T18:18:00.714Z,66.10
2019-02-16T18:20:38.528Z,66.70
2019-02-16T18:23:28.444Z,67.40
2019-02-16T18:26:19.320Z,68.10
2019-02-16T18:29:21.191Z,69.00
2019-02-16T18:32:06.611Z,69.70
2019-02-16T18:34:52.185Z,70.20
2019-02-16T18:37:34.268Z,70.90
2019-02-16T18:40:11.514Z,71.50
2019-02-16T18:43:01.220Z,72.40
2019-02-16T18:45:53.964Z,74.70
2019-02-16T18:48:39.835Z,75.30
2019-02-16T18:51:41.947Z,75.70
2019-02-16T18:54:37.869Z,75.70
2019-02-16T18:57:14.988Z,75.50
2019-02-16T19:00:02.743Z,75.30
2019-02-16T19:02:43.492Z,75.00
2019-02-16T19:05:20.779Z,74.50
2019-02-16T19:08:05.963Z,74.70
2019-02-16T19:10:51.067Z,75.00
2019-02-16T19:13:41.872Z,75.60
2019-02-16T19:16:21.126Z,75.70
2019-02-16T19:19:19.723Z,75.90
2019-02-16T19:22:07.376Z,76.40
2019-02-16T19:25:12.630Z,77.10
2019-02-16T19:27:51.711Z,77.70
2019-02-16T19:30:35.845Z,78.70
2019-02-16T19:33:34.612Z,78.80
2019-02-16T19:36:30.353Z,79.20
2019-02-16T19:39:12.831Z,79.70
2019-02-16T19:42:00.256Z,80.00
2019-02-16T19:44:36.073Z,80.40
2019-02-16T19:47:28.359Z,80.80
2019-02-16T19:50:04.485Z,81.40
2019-02-16T19:52:54.981Z,81.50
2019-02-16T19:55:48.443Z,81.70
2019-02-16T19:58:35.028Z,82.00
2019-02-16T20:01:22.091Z,82.30
2019-02-16T20:04:07.212Z,82.60
2019-02-16T20:06:48.813Z,82.90
2019-02-16T20:09:33.274Z,82.80
2019-02-16T20:12:22.476Z,83.00
2019-02-16T20:14:56.026Z,83.80
2019-02-16T20:17:31.193Z,84.20
2019-02-16T20:20:10.746Z,84.60
2019-02-16T20:23:00.702Z,84.70
2019-02-16T20:25:50.482Z,84.70
2019-02-16T20:28:28.593Z,84.90
2019-02-16T20:31:12.019Z,85.10
2019-02-16T20:33:59.262Z,85.40
2019-02-16T20:36:32.587Z,85.30
2019-02-16T20:39:18.222Z,85.30
2019-02-16T20:42:04.234Z,85.50
2019-02-16T20:44:54.052Z,85.60
2019-02-16T20:47:50.010Z,85.60
2019-02-16T20:50:32.910Z,85.80
2019-02-16T20:53:18.392Z,86.00
2019-02-16T20:56:06.038Z,86.40
2019-02-16T20:59:02.287Z,86.90
2019-02-16T21:01:49.611Z,87.60
2019-02-16T21:04:49.384Z,87.00
2019-02-16T21:07:49.262Z,87.30
2019-02-16T21:10:39.411Z,88.60
2019-02-16T21:13:32.598Z,88.20
2019-02-16T21:16:19.841Z,88.40
2019-02-16T21:19:09.351Z,87.90
2019-02-16T21:22:01.021Z,87.90
2019-02-16T21:24:51.155Z,88.30
2019-02-16T21:27:41.008Z,88.40
2019-02-16T21:30:29.882Z,88.70
2019-02-16T21:33:17.210Z,88.50
2019-02-16T21:36:02.484Z,88.40
2019-02-16T21:38:48.036Z,88.60
2019-02-16T21:41:41.178Z,89.00
2019-02-16T21:44:23.007Z,89.40
2019-02-16T21:47:12.043Z,89.60
2019-02-16T21:50:02.671Z,89.30
2019-02-16T21:52:49.593Z,89.30
2019-02-16T21:55:27.351Z,89.50
2019-02-16T21:58:08.370Z,89.60
2019-02-16T22:01:02.815Z,89.40
2019-02-16T22:03:59.485Z,89.60
2019-02-16T22:06:46.807Z,90.00
2019-02-16T22:09:39.947Z,90.20
2019-02-16T22:12:25.734Z,90.20
2019-02-16T22:15:08.621Z,90.20
2019-02-16T22:17:41.396Z,90.20
2019-02-16T22:20:19.007Z,90.10
2019-02-16T22:22:52.632Z,90.20
2019-02-16T22:25:24.438Z,90.20
2019-02-16T22:28:18.305Z,90.20
2019-02-16T22:30:44.001Z,90.20
2019-02-16T22:33:11.870Z,90.20
2019-02-16T22:35:45.939Z,90.30
2019-02-16T22:38:15.687Z,90.90
2019-02-16T22:40:46.710Z,90.70
2019-02-16T22:43:17.380Z,90.80
2019-02-16T22:45:45.985Z,90.70
2019-02-16T22:48:20.020Z,90.70
2019-02-16T22:50:48.027Z,90.60
2019-02-16T22:53:15.857Z,90.60
2019-02-16T22:55:44.152Z,90.50
2019-02-16T22:58:11.882Z,90.50
2019-02-16T23:00:43.875Z,90.40
2019-02-16T23:03:12.593Z,90.40
2019-02-16T23:05:40.825Z,90.40
2019-02-16T23:08:08.917Z,90.40
2019-02-16T23:10:39.082Z,90.40
2019-02-16T23:13:07.414Z,90.50
2019-02-16T23:15:35.709Z,90.40
2019-02-16T23:18:03.906Z,90.30
2019-02-16T23:20:31.789Z,90.30
2019-02-16T23:22:59.660Z,90.30
2019-02-16T23:25:27.427Z,90.40
2019-02-16T23:27:55.225Z,90.40
2019-02-16T23:30:24.424Z,90.50
2019-02-16T23:32:52.516Z,90.50
2019-02-16T23:35:20.861Z,90.60
2019-02-16T23:37:48.573Z,90.70
2019-02-16T23:40:16.655Z,90.70
2019-02-16T23:42:44.665Z,90.60
2019-02-16T23:45:14.904Z,90.50
2019-02-16T23:47:45.418Z,90.60
2019-02-16T23:50:13.847Z,90.80
2019-02-16T23:52:44.920Z,90.90
2019-02-16T23:55:13.075Z,90.90
2019-02-16T23:57:40.900Z,90.90
